createdAt,value
2017-09-29T00:00:26.979Z,79.50
2017-09-29T00:02:54.826Z,79.40
2017-09-29T00:05:22.294Z,79.40
2017-09-29T00:07:49.824Z,79.40
2017-09-29T00:10:17.268Z,79.40
2017-09-29T00:12:44.703Z,79.50
2017-09-29T00:15:12.626Z,79.40
2017-09-29T00:17:40.070Z,79.40
2017-09-29T00:20:07.487Z,79.30
2017-09-29T00:22:34.934Z,79.40
2017-09-29T00:25:02.364Z,79.50
2017-09-29T00:27:29.815Z,79.50
2017-09-29T00:29:57.305Z,79.60
2017-09-29T00:32:24.751Z,79.70
2017-09-29T00:34:52.189Z,79.80
2017-09-29T00:37:19.669Z,79.90
2017-09-29T00:39:47.109Z,80.00
2017-09-29T00:42:14.547Z,80.10
2017-09-29T00:44:42.411Z,80.10
2017-09-29T00:47:09.844Z,80.10
2017-09-29T00:49:37.273Z,80.20
2017-09-29T00:52:04.970Z,80.20
2017-09-29T00:54:32.401Z,80.20
2017-09-29T00:56:59.830Z,80.20
2017-09-29T00:59:27.285Z,80.30
2017-09-29T01:01:54.713Z,80.30
2017-09-29T01:04:22.157Z,80.40
2017-09-29T01:06:49.583Z,80.50
2017-09-29T01:09:17.447Z,80.50
2017-09-29T01:11:44.874Z,80.50
2017-09-29T01:14:12.304Z,80.50
2017-09-29T01:16:39.788Z,80.50
2017-09-29T01:19:07.237Z,80.50
2017-09-29T01:21:34.662Z,80.60
2017-09-29T01:24:02.496Z,80.70
2017-09-29T01:26:29.939Z,80.70
2017-09-29T01:28:57.365Z,80.80
2017-09-29T01:31:25.230Z,80.80
2017-09-29T01:33:53.061Z,80.80
2017-09-29T01:36:20.493Z,80.80
2017-09-29T01:38:48.176Z,80.80
2017-09-29T01:41:15.599Z,80.90
2017-09-29T01:43:43.095Z,80.90
2017-09-29T01:46:10.550Z,80.90
2017-09-29T01:48:37.981Z,81.00
2017-09-29T01:51:05.807Z,81.10
2017-09-29T01:53:33.463Z,81.10
2017-09-29T01:56:00.891Z,81.20
2017-09-29T01:58:28.324Z,81.10
2017-09-29T02:00:55.770Z,81.10
2017-09-29T02:03:23.202Z,81.20
2017-09-29T02:05:51.423Z,81.20
2017-09-29T02:08:19.045Z,81.20
2017-09-29T02:10:46.468Z,81.20
2017-09-29T02:13:14.890Z,81.10
2017-09-29T02:15:42.563Z,81.10
2017-09-29T02:18:09.984Z,81.20
2017-09-29T02:20:37.888Z,81.20
2017-09-29T02:23:05.551Z,81.20
2017-09-29T02:25:32.987Z,81.20
2017-09-29T02:28:00.417Z,81.20
2017-09-29T02:30:28.699Z,81.30
2017-09-29T02:32:56.160Z,81.40
2017-09-29T02:35:23.617Z,81.50
2017-09-29T02:37:52.755Z,81.50
2017-09-29T02:40:21.884Z,81.30
2017-09-29T02:42:49.302Z,81.30
2017-09-29T02:45:17.191Z,81.20
2017-09-29T02:47:44.676Z,81.20
2017-09-29T02:50:12.184Z,81.10
2017-09-29T02:52:39.840Z,81.20
2017-09-29T02:55:07.324Z,81.30
2017-09-29T02:57:40.708Z,81.30
2017-09-29T03:00:14.773Z,81.40
2017-09-29T03:02:48.000Z,81.40
2017-09-29T03:05:22.477Z,81.50
2017-09-29T03:07:49.955Z,81.50
2017-09-29T03:10:17.416Z,81.50
2017-09-29T03:12:44.855Z,81.60
2017-09-29T03:15:12.324Z,81.60
2017-09-29T03:17:39.776Z,81.70
2017-09-29T03:20:07.217Z,81.70
2017-09-29T03:22:35.248Z,81.80
2017-09-29T03:25:02.699Z,81.80
2017-09-29T03:27:30.143Z,81.80
2017-09-29T03:29:57.619Z,81.70
2017-09-29T03:32:25.090Z,81.60
2017-09-29T03:34:52.539Z,81.60
2017-09-29T03:37:20.044Z,81.60
2017-09-29T03:39:47.485Z,81.60
2017-09-29T03:42:14.946Z,81.60
2017-09-29T03:44:42.451Z,81.60
2017-09-29T03:47:09.931Z,81.60
2017-09-29T03:49:38.836Z,81.70
2017-09-29T03:52:15.821Z,81.70
2017-09-29T03:54:46.262Z,81.70
2017-09-29T03:57:20.964Z,81.70
2017-09-29T03:59:49.043Z,81.80
2017-09-29T04:02:16.908Z,81.80
2017-09-29T04:04:44.933Z,81.80
2017-09-29T04:07:12.513Z,81.80
2017-09-29T04:09:39.991Z,81.70
2017-09-29T04:12:07.459Z,81.70
2017-09-29T04:14:35.501Z,81.70
2017-09-29T04:17:02.965Z,81.70
2017-09-29T04:19:30.419Z,81.70
2017-09-29T04:21:58.035Z,81.60
2017-09-29T04:24:25.504Z,81.60
2017-09-29T04:26:53.360Z,81.50
2017-09-29T04:29:21.323Z,81.50
2017-09-29T04:31:48.767Z,81.50
2017-09-29T04:34:16.614Z,81.50
2017-09-29T04:36:44.126Z,81.60
2017-09-29T04:39:11.687Z,81.60
2017-09-29T04:41:39.125Z,81.60
2017-09-29T04:44:06.580Z,81.70
2017-09-29T04:46:34.026Z,81.70
2017-09-29T04:49:01.471Z,81.80
2017-09-29T04:51:29.162Z,81.90
2017-09-29T04:53:56.624Z,81.90
2017-09-29T04:56:24.057Z,81.80
2017-09-29T04:58:51.560Z,81.80
2017-09-29T05:01:18.995Z,81.80
2017-09-29T05:03:46.468Z,81.70
2017-09-29T05:06:13.936Z,81.70
2017-09-29T05:08:41.360Z,81.70
2017-09-29T05:11:08.813Z,81.70
2017-09-29T05:13:36.708Z,81.70
2017-09-29T05:16:04.192Z,81.70
2017-09-29T05:18:31.663Z,81.70
2017-09-29T05:20:59.471Z,81.80
2017-09-29T05:23:26.925Z,81.80
2017-09-29T05:25:54.470Z,81.70
2017-09-29T05:28:21.956Z,81.60
2017-09-29T05:30:49.415Z,81.70
2017-09-29T05:33:17.274Z,81.60
2017-09-29T05:35:44.795Z,81.60
2017-09-29T05:38:12.235Z,81.60
2017-09-29T05:40:39.704Z,81.50
2017-09-29T05:43:07.416Z,81.60
2017-09-29T05:45:34.903Z,81.50
2017-09-29T05:48:02.418Z,81.40
2017-09-29T05:50:29.898Z,81.30
2017-09-29T05:52:57.354Z,81.40
2017-09-29T05:55:24.822Z,81.40
2017-09-29T05:57:53.360Z,81.40
2017-09-29T06:00:21.209Z,81.50
2017-09-29T06:02:48.727Z,81.40
2017-09-29T06:05:16.443Z,81.40
2017-09-29T06:07:43.907Z,81.50
2017-09-29T06:10:11.375Z,81.50
2017-09-29T06:12:38.904Z,81.50
2017-09-29T06:15:06.348Z,81.60
2017-09-29T06:17:33.817Z,81.60
2017-09-29T06:20:01.493Z,81.60
2017-09-29T06:22:29.024Z,81.60
2017-09-29T06:24:56.513Z,81.60
2017-09-29T06:27:23.990Z,81.60
2017-09-29T06:29:51.488Z,81.60
2017-09-29T06:32:19.362Z,81.60
2017-09-29T06:34:46.892Z,81.60
2017-09-29T06:37:14.329Z,81.70
2017-09-29T06:39:42.099Z,81.50
2017-09-29T06:42:09.592Z,81.50
2017-09-29T06:44:37.011Z,81.60
2017-09-29T06:47:04.485Z,81.50
2017-09-29T06:49:32.001Z,81.30
2017-09-29T06:51:59.837Z,81.10
2017-09-29T06:54:27.282Z,81.10
2017-09-29T06:56:54.764Z,81.10
2017-09-29T06:59:22.220Z,81.00
2017-09-29T07:01:49.701Z,80.90
2017-09-29T07:04:17.171Z,81.00
2017-09-29T07:06:45.028Z,81.00
2017-09-29T07:09:12.779Z,81.00
2017-09-29T07:11:40.312Z,81.00
2017-09-29T07:14:07.873Z,80.70
2017-09-29T07:16:35.327Z,80.70
2017-09-29T07:19:02.831Z,80.50
2017-09-29T07:21:30.300Z,80.40
2017-09-29T07:23:57.776Z,80.30
2017-09-29T07:26:31.031Z,80.70
2017-09-29T07:29:02.974Z,80.40
2017-09-29T07:31:35.439Z,80.00
2017-09-29T07:34:02.913Z,79.80
2017-09-29T07:36:30.624Z,79.70
2017-09-29T07:38:58.076Z,79.60
2017-09-29T07:41:25.519Z,79.60
2017-09-29T07:43:52.983Z,79.70
2017-09-29T07:46:20.544Z,79.60
2017-09-29T07:48:48.001Z,79.50
2017-09-29T07:51:15.592Z,79.40
2017-09-29T07:53:43.020Z,79.50
2017-09-29T07:56:10.474Z,79.40
2017-09-29T07:58:37.947Z,79.30
2017-09-29T08:01:05.453Z,79.40
2017-09-29T08:03:33.350Z,79.50
2017-09-29T08:06:00.822Z,79.60
2017-09-29T08:08:28.377Z,79.40
2017-09-29T08:10:55.819Z,79.30
2017-09-29T08:13:23.295Z,79.00
2017-09-29T08:15:51.155Z,78.60
2017-09-29T08:18:19.221Z,78.60
2017-09-29T08:20:46.666Z,78.30
2017-09-29T08:23:14.117Z,78.10
2017-09-29T08:25:41.869Z,77.80
2017-09-29T08:28:09.304Z,77.30
2017-09-29T08:30:37.179Z,77.50
2017-09-29T08:33:05.194Z,77.50
2017-09-29T08:35:32.699Z,77.40
2017-09-29T08:38:00.175Z,77.30
2017-09-29T08:40:27.706Z,77.30
2017-09-29T08:42:55.186Z,77.10
2017-09-29T08:45:22.686Z,76.70
2017-09-29T08:47:50.202Z,76.80
2017-09-29T08:50:17.687Z,75.90
2017-09-29T08:52:45.121Z,75.90
2017-09-29T08:55:12.604Z,75.40
2017-09-29T08:57:40.478Z,74.90
2017-09-29T09:00:08.355Z,74.90
2017-09-29T09:02:36.412Z,74.10
2017-09-29T09:05:03.924Z,74.10
2017-09-29T09:07:31.376Z,73.90
2017-09-29T09:09:58.837Z,73.80
2017-09-29T09:12:26.302Z,73.60
2017-09-29T09:14:53.772Z,72.10
2017-09-29T09:17:22.597Z,71.90
2017-09-29T09:19:50.056Z,71.90
2017-09-29T09:22:17.526Z,71.80
2017-09-29T09:24:44.975Z,71.80
2017-09-29T09:27:12.465Z,71.20
2017-09-29T09:29:40.112Z,71.00
2017-09-29T09:32:07.596Z,70.10
2017-09-29T09:34:35.253Z,69.70
2017-09-29T09:37:02.731Z,69.10
2017-09-29T09:39:30.211Z,68.90
2017-09-29T09:41:58.044Z,69.40
2017-09-29T09:44:25.495Z,69.40
2017-09-29T09:46:52.951Z,68.10
2017-09-29T09:49:20.430Z,68.10
2017-09-29T09:51:48.192Z,68.00
2017-09-29T09:54:15.608Z,67.30
2017-09-29T09:56:43.062Z,67.40
2017-09-29T09:59:10.910Z,67.60
2017-09-29T10:01:38.448Z,67.60
2017-09-29T10:04:05.889Z,67.60
2017-09-29T10:06:33.347Z,67.70
2017-09-29T10:09:00.798Z,68.10
2017-09-29T10:11:28.232Z,67.90
2017-09-29T10:13:56.081Z,65.60
2017-09-29T10:16:23.500Z,65.60
2017-09-29T10:18:50.938Z,64.80
2017-09-29T10:21:18.786Z,62.90
2017-09-29T10:23:46.640Z,62.40
2017-09-29T10:26:14.092Z,62.40
2017-09-29T10:28:41.538Z,61.80
2017-09-29T10:31:08.957Z,62.30
2017-09-29T10:33:36.812Z,62.20
2017-09-29T10:36:04.245Z,62.20
2017-09-29T10:38:31.678Z,62.30
2017-09-29T10:40:59.118Z,62.10
2017-09-29T10:43:26.535Z,62.30
2017-09-29T10:45:54.045Z,62.60
2017-09-29T10:48:21.500Z,62.70
2017-09-29T10:50:48.932Z,63.00
2017-09-29T10:53:16.360Z,63.20
2017-09-29T10:55:43.807Z,63.10
2017-09-29T10:58:11.945Z,63.60
2017-09-29T11:00:39.776Z,63.30
2017-09-29T11:03:07.373Z,63.30
2017-09-29T11:05:34.807Z,62.80
2017-09-29T11:08:02.266Z,63.10
2017-09-29T11:10:29.889Z,63.60
2017-09-29T11:12:57.712Z,63.60
2017-09-29T11:15:25.131Z,63.60
2017-09-29T11:17:52.634Z,63.40
2017-09-29T11:20:20.077Z,62.90
2017-09-29T11:22:47.542Z,62.20
2017-09-29T11:25:14.973Z,62.50
2017-09-29T11:27:42.400Z,62.70
2017-09-29T11:30:10.054Z,62.50
2017-09-29T11:32:37.497Z,62.50
2017-09-29T11:35:04.938Z,62.70
2017-09-29T11:37:32.400Z,62.80
2017-09-29T11:39:59.858Z,63.20
2017-09-29T11:42:27.335Z,62.70
2017-09-29T11:44:54.793Z,63.10
2017-09-29T11:47:22.378Z,62.80
2017-09-29T11:49:49.976Z,62.90
2017-09-29T11:52:17.415Z,62.60
2017-09-29T11:54:44.858Z,62.70
2017-09-29T11:57:12.307Z,63.70
2017-09-29T11:59:40.345Z,62.90
2017-09-29T12:02:08.175Z,61.40
2017-09-29T12:04:35.644Z,61.40
2017-09-29T12:07:03.065Z,61.70
2017-09-29T12:09:30.519Z,61.60
2017-09-29T12:11:58.001Z,62.00
2017-09-29T12:14:25.463Z,61.10
2017-09-29T12:16:52.883Z,60.60
2017-09-29T12:19:20.780Z,59.50
2017-09-29T12:21:48.216Z,59.50
2017-09-29T12:24:16.229Z,60.00
2017-09-29T12:26:43.788Z,60.00
2017-09-29T12:29:11.247Z,60.40
2017-09-29T12:31:39.100Z,59.60
2017-09-29T12:34:06.959Z,59.40
2017-09-29T12:36:34.482Z,59.40
2017-09-29T12:39:01.940Z,59.10
2017-09-29T12:41:29.391Z,59.00
2017-09-29T12:43:56.845Z,58.70
2017-09-29T12:46:24.296Z,58.90
2017-09-29T12:48:51.751Z,58.40
2017-09-29T12:51:19.603Z,58.80
2017-09-29T12:53:47.040Z,58.80
2017-09-29T12:56:14.485Z,58.80
2017-09-29T12:58:41.974Z,58.90
2017-09-29T13:01:09.480Z,59.20
2017-09-29T13:03:36.934Z,59.00
2017-09-29T13:06:04.793Z,57.80
2017-09-29T13:08:33.198Z,58.60
2017-09-29T13:11:00.690Z,58.60
2017-09-29T13:13:28.357Z,58.40
2017-09-29T13:15:55.826Z,58.70
2017-09-29T13:18:23.335Z,57.60
2017-09-29T13:20:51.471Z,58.20
2017-09-29T13:23:18.916Z,58.20
2017-09-29T13:25:46.357Z,58.30
2017-09-29T13:30:48.892Z,58.30
2017-09-29T13:33:16.550Z,58.40
2017-09-29T13:35:43.979Z,58.50
2017-09-29T13:38:11.419Z,58.10
2017-09-29T13:40:39.278Z,58.50
2017-09-29T13:43:07.113Z,58.50
2017-09-29T13:45:34.591Z,58.50
2017-09-29T13:48:02.183Z,59.10
2017-09-29T13:50:30.045Z,58.70
2017-09-29T13:52:57.553Z,58.70
2017-09-29T13:55:25.014Z,58.90
2017-09-29T13:57:52.597Z,59.00
2017-09-29T14:00:20.320Z,58.80
2017-09-29T14:02:47.761Z,58.80
2017-09-29T14:05:15.210Z,58.60
2017-09-29T14:07:42.672Z,58.90
2017-09-29T14:10:10.096Z,58.90
2017-09-29T14:12:37.522Z,58.80
2017-09-29T14:15:05.389Z,58.80
2017-09-29T14:17:33.223Z,58.60
2017-09-29T14:20:00.672Z,58.60
2017-09-29T14:22:28.276Z,58.40
2017-09-29T14:24:55.761Z,58.70
2017-09-29T14:27:24.033Z,58.90
2017-09-29T14:29:51.893Z,59.10
2017-09-29T14:32:19.384Z,59.10
2017-09-29T14:34:47.187Z,59.00
2017-09-29T14:37:14.754Z,59.00
2017-09-29T14:39:42.248Z,59.00
2017-09-29T14:42:09.683Z,59.10
2017-09-29T14:44:37.277Z,58.70
2017-09-29T14:47:04.775Z,58.80
2017-09-29T14:49:32.201Z,59.00
2017-09-29T14:52:00.203Z,59.10
2017-09-29T14:54:27.624Z,59.10
2017-09-29T14:56:55.068Z,58.80
2017-09-29T14:59:22.648Z,58.90
2017-09-29T15:01:50.148Z,58.90
2017-09-29T15:04:18.111Z,59.50
2017-09-29T15:06:45.982Z,59.90
2017-09-29T15:09:13.442Z,59.90
2017-09-29T15:11:40.929Z,59.50
2017-09-29T15:14:08.754Z,59.40
2017-09-29T15:16:36.205Z,59.40
2017-09-29T15:19:03.886Z,59.50
2017-09-29T15:21:31.364Z,59.30
2017-09-29T15:23:58.801Z,59.30
2017-09-29T15:26:26.567Z,59.30
2017-09-29T15:28:54.131Z,59.40
2017-09-29T15:31:21.921Z,59.60
2017-09-29T15:33:49.392Z,59.20
2017-09-29T15:36:16.821Z,59.50
2017-09-29T15:38:44.336Z,59.40
2017-09-29T15:41:11.819Z,59.50
2017-09-29T15:43:39.261Z,59.40
2017-09-29T15:46:06.701Z,59.40
2017-09-29T15:48:34.158Z,59.40
2017-09-29T15:51:02.004Z,59.30
2017-09-29T15:53:29.445Z,59.30
2017-09-29T15:55:56.924Z,59.30
2017-09-29T15:58:24.370Z,59.50
2017-09-29T16:00:51.970Z,59.50
2017-09-29T16:03:20.439Z,59.70
2017-09-29T16:05:47.888Z,59.70
2017-09-29T16:08:15.316Z,59.70
2017-09-29T16:10:42.800Z,59.90
2017-09-29T16:13:10.214Z,59.80
2017-09-29T16:15:38.061Z,59.90
2017-09-29T16:18:05.571Z,59.90
2017-09-29T16:20:33.396Z,59.90
2017-09-29T16:23:00.868Z,59.90
2017-09-29T16:25:28.301Z,60.00
2017-09-29T16:27:55.731Z,60.00
2017-09-29T16:30:23.236Z,60.20
2017-09-29T16:32:50.711Z,60.30
2017-09-29T16:35:18.159Z,60.40
2017-09-29T16:37:45.615Z,60.60
2017-09-29T16:40:13.057Z,60.60
2017-09-29T16:42:40.499Z,60.60
2017-09-29T16:45:08.006Z,60.70
2017-09-29T16:47:35.470Z,60.80
2017-09-29T16:50:02.946Z,61.00
2017-09-29T16:52:30.389Z,61.10
2017-09-29T16:54:57.907Z,61.30
2017-09-29T16:57:25.751Z,61.80
2017-09-29T16:59:53.209Z,61.80
2017-09-29T17:02:21.132Z,61.80
2017-09-29T17:04:48.573Z,61.90
2017-09-29T17:07:16.402Z,62.40
2017-09-29T17:09:44.046Z,62.40
2017-09-29T17:12:11.473Z,62.70
2017-09-29T17:14:39.294Z,62.80
2017-09-29T17:17:06.953Z,62.80
2017-09-29T17:19:34.409Z,63.10
2017-09-29T17:22:01.828Z,63.70
2017-09-29T17:24:29.680Z,64.20
2017-09-29T17:26:57.121Z,64.20
2017-09-29T17:29:24.663Z,64.30
2017-09-29T17:31:52.133Z,64.40
2017-09-29T17:34:19.526Z,64.70
2017-09-29T17:36:47.234Z,64.90
2017-09-29T17:39:14.655Z,65.50
2017-09-29T17:41:42.240Z,65.40
2017-09-29T17:44:10.084Z,65.70
2017-09-29T17:46:37.498Z,65.70
2017-09-29T17:49:04.911Z,66.00
2017-09-29T17:51:32.352Z,66.00
2017-09-29T17:53:59.835Z,65.90
2017-09-29T17:56:27.268Z,66.30
2017-09-29T17:58:54.704Z,66.30
2017-09-29T18:01:22.174Z,66.30
2017-09-29T18:03:49.600Z,66.70
2017-09-29T18:06:17.615Z,67.10
2017-09-29T18:08:45.272Z,67.10
2017-09-29T18:11:12.719Z,67.00
2017-09-29T18:13:40.149Z,67.10
2017-09-29T18:16:07.627Z,67.00
2017-09-29T18:18:35.452Z,67.30
2017-09-29T18:21:02.897Z,67.30
2017-09-29T18:23:30.339Z,67.60
2017-09-29T18:25:58.615Z,67.70
2017-09-29T18:28:26.046Z,67.90
2017-09-29T18:30:53.985Z,67.90
2017-09-29T18:33:21.405Z,67.90
2017-09-29T18:35:48.924Z,68.10
2017-09-29T18:38:16.365Z,68.30
2017-09-29T18:40:48.416Z,68.30
2017-09-29T18:43:16.251Z,68.50
2017-09-29T18:45:44.863Z,68.70
2017-09-29T18:48:12.291Z,68.70
2017-09-29T18:50:39.744Z,68.70
2017-09-29T18:53:07.168Z,69.00
2017-09-29T18:55:34.618Z,69.00
2017-09-29T18:58:02.086Z,68.90
2017-09-29T19:00:30.357Z,68.80
2017-09-29T19:02:57.796Z,68.90
2017-09-29T19:05:25.720Z,68.90
2017-09-29T19:07:53.152Z,68.90
2017-09-29T19:10:20.587Z,68.80
2017-09-29T19:12:49.186Z,69.20
2017-09-29T19:15:16.655Z,69.20
2017-09-29T19:17:44.797Z,69.50
2017-09-29T19:20:12.251Z,69.50
2017-09-29T19:22:39.743Z,69.50
2017-09-29T19:25:07.148Z,69.70
2017-09-29T19:27:34.811Z,69.80
2017-09-29T19:30:02.225Z,70.10
2017-09-29T19:32:30.052Z,70.30
2017-09-29T19:34:57.502Z,70.30
2017-09-29T19:37:24.922Z,70.40
2017-09-29T19:39:52.778Z,70.50
2017-09-29T19:42:20.208Z,70.50
2017-09-29T19:44:47.648Z,70.60
2017-09-29T19:50:05.733Z,70.80
2017-09-29T19:52:33.169Z,70.70
2017-09-29T19:55:00.596Z,70.90
2017-09-29T19:57:28.452Z,71.10
2017-09-29T19:59:57.308Z,71.30
2017-09-29T20:02:24.759Z,71.30
2017-09-29T20:04:52.208Z,71.30
2017-09-29T20:07:20.208Z,71.40
2017-09-29T20:09:49.498Z,71.40
2017-09-29T20:12:16.938Z,71.50
2017-09-29T20:14:44.406Z,71.90
2017-09-29T20:17:11.834Z,71.90
2017-09-29T20:19:39.443Z,71.80
2017-09-29T20:22:06.907Z,71.90
2017-09-29T20:24:34.344Z,71.90
2017-09-29T20:27:02.177Z,71.90
2017-09-29T20:32:20.510Z,72.10
2017-09-29T20:34:47.942Z,72.10
2017-09-29T20:37:15.356Z,72.00
2017-09-29T20:39:42.822Z,72.10
2017-09-29T20:42:10.270Z,72.30
2017-09-29T20:44:37.896Z,72.20
2017-09-29T20:47:05.324Z,72.40
2017-09-29T20:49:33.143Z,72.50
2017-09-29T20:52:02.469Z,72.50
2017-09-29T20:54:32.098Z,72.60
2017-09-29T20:56:59.537Z,72.60
2017-09-29T20:59:27.183Z,72.50
2017-09-29T21:01:54.616Z,72.50
2017-09-29T21:04:22.045Z,72.50
2017-09-29T21:06:49.666Z,72.60
2017-09-29T21:09:17.108Z,72.50
2017-09-29T21:11:44.535Z,72.50
2017-09-29T21:14:11.977Z,72.60
2017-09-29T21:16:39.427Z,72.90
2017-09-29T21:19:06.949Z,72.90
2017-09-29T21:21:34.387Z,73.00
2017-09-29T21:24:01.851Z,73.00
2017-09-29T21:26:29.276Z,73.00
2017-09-29T21:28:56.816Z,73.10
2017-09-29T21:31:24.297Z,73.10
2017-09-29T21:33:51.723Z,73.20
2017-09-29T21:36:19.664Z,73.30
2017-09-29T21:38:47.287Z,73.40
2017-09-29T21:41:14.746Z,73.40
2017-09-29T21:43:42.194Z,73.50
2017-09-29T21:46:09.999Z,73.70
2017-09-29T21:48:37.429Z,73.70
2017-09-29T21:51:05.026Z,73.80
2017-09-29T21:53:32.452Z,74.00
2017-09-29T21:55:59.901Z,74.10
2017-09-29T21:58:27.809Z,74.20
2017-09-29T22:00:55.246Z,74.20
2017-09-29T22:03:22.948Z,74.30
2017-09-29T22:05:51.932Z,74.40
2017-09-29T22:08:19.376Z,74.50
2017-09-29T22:10:46.848Z,74.60
2017-09-29T22:13:14.528Z,74.70
2017-09-29T22:15:41.962Z,74.80
2017-09-29T22:18:09.382Z,74.80
2017-09-29T22:20:36.817Z,74.90
2017-09-29T22:23:05.080Z,75.00
2017-09-29T22:25:32.511Z,75.10
2017-09-29T22:28:00.370Z,75.00
2017-09-29T22:30:28.214Z,75.00
2017-09-29T22:32:55.671Z,75.00
2017-09-29T22:35:23.116Z,75.20
2017-09-29T22:37:50.776Z,75.20
2017-09-29T22:40:18.207Z,75.30
2017-09-29T22:42:46.799Z,75.30
2017-09-29T22:45:14.628Z,75.30
2017-09-29T22:47:42.170Z,75.30
2017-09-29T22:50:10.503Z,75.20
2017-09-29T22:52:38.331Z,75.40
2017-09-29T22:55:05.767Z,75.30
2017-09-29T22:57:34.043Z,75.40
2017-09-29T23:00:01.508Z,75.40
2017-09-29T23:02:29.312Z,75.70
2017-09-29T23:04:56.753Z,75.60
2017-09-29T23:07:24.192Z,75.70
2017-09-29T23:09:51.879Z,75.90
2017-09-29T23:12:19.305Z,75.90
2017-09-29T23:14:47.135Z,76.10
2017-09-29T23:17:14.784Z,76.20
2017-09-29T23:19:42.226Z,76.20
2017-09-29T23:22:09.647Z,76.30
2017-09-29T23:24:37.102Z,76.40
2017-09-29T23:27:04.637Z,76.50
2017-09-29T23:29:32.080Z,76.50
2017-09-29T23:31:59.646Z,76.60
2017-09-29T23:34:27.083Z,76.70
2017-09-29T23:36:54.584Z,76.70
2017-09-29T23:39:22.046Z,76.70
2017-09-29T23:41:49.470Z,76.60
2017-09-29T23:44:17.294Z,76.70
2017-09-29T23:46:44.872Z,76.70
2017-09-29T23:49:12.317Z,76.60
2017-09-29T23:51:39.752Z,76.70
2017-09-29T23:54:07.204Z,76.70
2017-09-29T23:56:34.632Z,76.70
2017-09-29T23:59:02.590Z,76.80
